Latest Weather Observations for Munglinup West

IDW60801

Issued at 11:32 pm WST Monday 6 July 2015 (issued every 30 minutes, with the page automatically refreshed every 10 minutes)

About weather observations | Map of weather stations | Latest weather observations for WA | Other Formats
Station Details ID: 012044 Name: MUNGLINUP WEST Lat: -33.55 Lon: 120.70 Height: 220.0 m
Data from the previous 72 hours. | See also: Recent months at Munglinup West
Date/Time
WST
Temp
°C
App
Temp
°C
Dew
Point
Rel
Hum
%
Delta-T
°C
Wind Press
QNH
hPa
Press
MSL
hPa
Rain
since 9 am
mm
Dir
 
Spd
km/h
Gust
km/h
Spd
kts
Gust
kts
06/11:30pm 10.0 7.8 7.8 86 1.1 N 9 15 5 8 1020.2 1020.3 0.0
06/11:00pm 10.5 8.4 8.3 86 1.1 NNW 9 11 5 6 1020.4 1020.5 0.0
06/10:30pm 10.1 7.5 7.9 86 1.1 NNW 11 15 6 8 1020.6 1020.7 0.0
06/10:00pm 9.3 6.9 7.1 86 1.0 NNW 9 11 5 6 1020.7 1020.8 0.0
06/09:30pm 9.1 6.3 6.9 86 1.0 NNW 11 11 6 6 1020.8 1020.9 0.0
06/09:00pm 9.0 6.5 6.4 84 1.2 N 9 11 5 6 1020.9 1021.0 0.0
06/08:30pm 9.7 7.4 5.7 76 1.9 N 7 9 4 5 1020.9 1021.0 0.0
06/08:00pm 10.0 7.6 5.2 72 2.2 NNW 7 7 4 4 1021.0 1021.1 0.0
06/07:30pm 10.6 8.4 5.4 70 2.4 NNW 6 6 3 3 1020.9 1021.0 0.0
06/07:00pm 10.6 8.4 5.2 69 2.5 NNW 6 7 3 4 1020.7 1020.8 0.0
06/06:30pm 12.0 9.8 5.4 64 3.1 NW 6 7 3 4 1020.6 1020.7 0.0
06/06:00pm 12.4 10.0 5.3 62 3.3 WNW 7 9 4 5 1020.5 1020.6 0.0
06/05:30pm 13.0 10.7 5.7 61 3.5 WNW 7 9 4 5 1020.4 1020.5 0.0
06/05:00pm 13.2 11.1 6.5 64 3.2 W 7 9 4 5 1020.1 1020.1 0.0
06/04:30pm 14.8 13.2 8.1 64 3.4 W 6 9 3 5 1019.9 1019.9 0.0
06/04:00pm 17.6 15.1 4.9 43 6.1 NW 7 11 4 6 1019.9 1019.9 0.0
06/03:30pm 17.5 16.2 7.8 53 5.0 WSW 4 7 2 4 1019.9 1019.9 0.0
06/03:00pm 17.7 15.9 7.2 50 5.3 W 6 7 3 4 1020.0 1020.0 0.0
06/02:30pm 17.0 14.2 7.1 52 5.0 W 11 15 6 8 1020.1 1020.1 0.0
06/02:00pm 17.0 14.6 7.1 52 5.0 W 9 17 5 9 1020.1 1020.1 0.0
06/01:30pm 16.6 13.9 7.3 54 4.7 W 11 19 6 10 1020.4 1020.5 0.0
06/01:00pm 16.3 13.5 7.0 54 4.6 W 11 15 6 8 1020.7 1020.8 0.0
06/12:30pm 15.8 13.5 7.3 57 4.3 WSW 9 15 5 8 1021.1 1021.2 0.0
06/12:00pm 15.7 12.8 8.2 61 3.8 WSW 13 17 7 9 1021.6 1021.7 0.0
06/11:30am 15.6 13.1 8.1 61 3.8 W 11 15 6 8 1022.1 1022.2 0.0
06/11:00am 14.8 12.1 9.0 68 3.0 W 13 19 7 10 1022.6 1022.7 0.0
06/10:30am 13.9 11.9 8.7 71 2.6 WSW 9 13 5 7 1022.7 1022.8 0.0
06/10:00am 14.0 11.8 7.8 66 3.1 WNW 9 17 5 9 1022.8 1022.9 0.0
06/09:30am 12.7 10.7 8.8 77 2.0 NW 9 13 5 7 1022.8 1022.9 0.0
06/09:00am 11.4 10.0 9.7 89 0.9 NNW 7 11 4 6 1022.5 1022.6 0.4
06/08:30am 9.9 8.5 9.6 98 0.2 NNW 7 9 4 5 1022.3 1022.4 0.4
06/08:00am 7.8 5.6 7.8 100 0.0 NNW 9 11 5 6 1022.1 1022.2 0.4
06/07:30am 6.0 3.0 6.0 100 0.0 NNW 11 11 6 6 1022.0 1022.1 0.4
06/07:00am 5.7 2.6 5.7 100 0.0 NNW 11 13 6 7 1021.9 1022.0 0.4
06/06:30am 5.8 3.1 5.8 100 0.0 NNW 9 11 5 6 1021.7 1021.8 0.2
06/06:00am 6.0 3.0 6.0 100 0.0 NNW 11 11 6 6 1021.4 1021.5 0.2
06/05:30am 6.2 3.6 6.2 100 0.0 NNW 9 11 5 6 1021.2 1021.3 0.2
06/05:00am 6.4 3.9 6.4 100 0.0 NNW 9 11 5 6 1021.0 1021.1 0.2
06/04:30am 6.8 4.0 6.8 100 0.0 NNW 11 13 6 7 1020.9 1021.0 0.2
06/04:00am 6.6 4.1 6.6 100 0.0 NNW 9 11 5 6 1020.8 1020.9 0.2
06/03:30am 7.1 4.3 7.1 100 0.0 NNW 11 11 6 6 1020.9 1021.0 0.2
06/03:00am 6.8 4.3 6.7 99 0.0 NNW 9 9 5 5 1021.0 1021.1 0.2
06/02:30am 6.8 4.7 6.7 99 0.0 NNW 7 9 4 5 1020.9 1021.0 0.2
06/02:00am 7.1 5.1 7.0 99 0.0 NNW 7 9 4 5 1021.0 1021.1 0.2
06/01:30am 7.9 6.3 7.8 99 0.0 NW 6 9 3 5 1021.0 1021.1 0.2
06/01:00am 7.5 5.5 7.2 98 0.1 NNW 7 7 4 4 1021.0 1021.1 0.2
06/12:30am 8.6 6.9 8.3 98 0.1 NW 7 9 4 5 1020.9 1021.0 0.2
06/12:00am 8.8 6.8 8.5 98 0.1 NNW 9 11 5 6 1021.0 1021.1 0.2
 
Date/Time
WST
Temp
°C
App
Temp
°C
Dew
Point
Rel
Hum
%
Delta-T
°C
Wind Press
QNH
hPa
Press
MSL
hPa
Rain
since 9 am
mm
Dir
 
Spd
km/h
Gust
km/h
Spd
kts
Gust
kts
05/11:30pm 8.7 7.0 8.4 98 0.1 NW 7 9 4 5 1021.2 1021.3 0.2
05/11:00pm 8.4 5.9 8.0 97 0.2 NNW 11 13 6 7 1021.3 1021.4 0.2
05/10:30pm 8.2 5.9 7.6 96 0.3 NNW 9 11 5 6 1021.5 1021.6 0.2
05/10:00pm 8.7 6.5 7.9 95 0.4 NNW 9 11 5 6 1021.7 1021.8 0.2
05/09:30pm 8.8 6.6 7.9 94 0.4 NNW 9 9 5 5 1021.6 1021.7 0.2
05/09:00pm 9.6 8.1 8.4 92 0.6 NNW 6 7 3 4 1021.5 1021.6 0.2
05/08:30pm 10.0 8.5 8.6 91 0.7 N 6 6 3 3 1021.6 1021.7 0.2
05/08:00pm 10.4 8.5 9.0 91 0.7 NE 9 11 5 6 1021.5 1021.6 0.2
05/07:30pm 10.5 8.6 8.9 90 0.8 NE 9 11 5 6 1021.4 1021.5 0.2
05/07:00pm 11.2 9.9 9.3 88 1.0 NE 6 7 3 4 1021.2 1021.3 0.2
05/06:30pm 12.4 11.3 10.5 88 1.0 ENE 7 11 4 6 1021.0 1021.1 0.2
05/06:00pm 12.2 11.0 10.3 88 1.0 ENE 7 11 4 6 1020.6 1020.7 0.2
05/05:30pm 12.3 10.6 10.0 86 1.2 ESE 9 9 5 5 1020.4 1020.5 0.2
05/05:00pm 13.2 12.2 10.2 82 1.6 ESE 6 7 3 4 1020.2 1020.3 0.2
05/04:30pm 15.0 13.8 9.4 69 2.9 SSE 6 9 3 5 1020.0 1020.0 0.2
05/04:00pm 16.5 15.1 9.0 61 3.9 SSW 6 9 3 5 1019.8 1019.8 0.2
05/03:30pm 16.7 15.9 9.6 63 3.7 SSW 4 6 2 3 1019.8 1019.8 0.2
05/03:00pm 16.4 15.2 10.3 67 3.3 SW 7 9 4 5 1019.8 1019.8 0.2
05/02:30pm 16.3 14.0 9.0 62 3.8 SW 11 15 6 8 1019.6 1019.7 0.2
05/02:00pm 16.7 15.2 9.1 61 4.0 WSW 7 13 4 7 1019.6 1019.7 0.2
05/01:30pm 16.6 14.2 8.6 59 4.1 WSW 11 15 6 8 1019.6 1019.7 0.0
05/01:00pm 16.2 13.4 8.7 61 3.9 WSW 13 20 7 11 1020.0 1020.0 0.0
05/12:30pm 16.0 13.6 8.5 61 3.9 SW 11 17 6 9 1020.4 1020.5 0.0
05/12:00pm 16.1 13.7 10.2 68 3.1 WSW 13 19 7 10 1020.8 1020.9 0.0
05/11:30am 15.4 13.0 10.0 70 2.9 WSW 13 19 7 10 1021.0 1021.1 0.0
05/11:00am 14.6 13.2 11.0 79 1.9 SW 9 17 5 9 1021.4 1021.5 0.0
05/10:30am 14.4 13.0 12.1 86 1.3 SW 11 20 6 11 1021.4 1021.5 0.0
05/10:00am 13.9 12.3 12.8 93 0.6 WSW 13 17 7 9 1021.6 1021.7 0.0
05/09:30am 13.6 12.0 12.8 95 0.4 W 13 15 7 8 1021.3 1021.4 0.0
05/09:00am 12.5 11.0 12.0 97 0.3 W 11 13 6 7 1021.1 1021.2 0.0
05/08:30am 11.8 10.9 11.5 98 0.2 WNW 7 13 4 7 1020.9 1021.0 0.0
05/08:00am 11.7 10.8 11.4 98 0.2 WNW 7 9 4 5 1020.7 1020.8 0.0
05/07:30am 11.4 10.4 11.1 98 0.2 WNW 7 11 4 6 1020.3 1020.4 0.0
05/07:00am 11.2 9.7 10.7 97 0.3 WNW 9 11 5 6 1020.0 1020.0 0.0
05/06:30am 11.2 9.4 10.7 97 0.3 W 11 17 6 9 1019.8 1019.8 0.0
05/06:00am 10.8 9.2 10.3 97 0.3 WNW 9 15 5 8 1019.4 1019.5 0.0
05/05:30am 10.4 8.7 9.9 97 0.3 WNW 9 13 5 7 1019.1 1019.2 0.0
05/05:00am 10.0 8.3 9.7 98 0.2 WNW 9 13 5 7 1019.0 1019.1 0.0
05/04:30am 9.5 7.3 9.2 98 0.1 NW 11 15 6 8 1018.7 1018.8 0.0
05/04:00am 9.6 7.4 9.3 98 0.1 NW 11 15 6 8 1018.8 1018.9 0.0
05/03:30am 9.3 7.0 9.0 98 0.1 NW 11 15 6 8 1019.1 1019.2 0.0
05/03:00am 9.6 7.0 9.3 98 0.1 NW 13 19 7 10 1019.1 1019.2 0.0
05/02:30am 9.5 7.6 9.2 98 0.1 NW 9 15 5 8 1019.3 1019.4 0.0
05/02:00am 9.8 7.6 9.5 98 0.2 NW 11 15 6 8 1019.1 1019.2 0.0
05/01:30am 10.1 7.6 9.6 97 0.3 NW 13 17 7 9 1019.1 1019.2 0.0
05/01:00am 10.3 7.4 9.7 96 0.3 NW 15 20 8 11 1019.1 1019.2 0.0
05/12:30am 10.6 7.7 9.8 95 0.4 NW 15 19 8 10 1019.1 1019.2 0.0
05/12:00am 10.9 8.1 10.0 94 0.5 NW 15 20 8 11 1019.0 1019.1 0.0
 
Date/Time
WST
Temp
°C
App
Temp
°C
Dew
Point
Rel
Hum
%
Delta-T
°C
Wind Press
QNH
hPa
Press
MSL
hPa
Rain
since 9 am
mm
Dir
 
Spd
km/h
Gust
km/h
Spd
kts
Gust
kts
04/11:30pm 10.8 7.9 9.6 92 0.6 NW 15 19 8 10 1019.0 1019.1 0.0
04/11:00pm 11.3 8.8 9.7 90 0.8 NW 13 19 7 10 1019.0 1019.1 0.0
04/10:30pm 11.8 9.4 9.9 88 1.0 NW 13 17 7 9 1019.1 1019.2 0.0
04/10:00pm 11.9 9.4 9.8 87 1.1 NW 13 17 7 9 1019.2 1019.3 0.0
04/09:30pm 11.8 9.7 9.9 88 1.0 NW 11 15 6 8 1019.4 1019.5 0.0
04/09:00pm 11.8 9.7 9.9 88 1.0 NNW 11 15 6 8 1019.6 1019.7 0.0
04/08:30pm 11.6 9.6 10.0 90 0.8 NNW 11 13 6 7 1019.8 1019.8 0.0
04/08:00pm 11.4 9.4 10.1 92 0.7 NW 11 13 6 7 1019.8 1019.8 0.0
04/07:30pm 11.3 9.9 9.6 89 0.9 NNW 7 9 4 5 1019.8 1019.8 0.0
04/07:00pm 12.3 10.8 10.4 88 1.0 NW 9 13 5 7 1019.9 1019.9 0.0
04/06:30pm 12.1 10.4 10.0 87 1.1 NNW 9 11 5 6 1019.9 1019.9 0.0
04/06:00pm 13.3 12.5 11.2 87 1.1 NW 6 7 3 4 1019.8 1019.8 0.0
04/05:30pm 13.4 12.7 11.3 87 1.1 WNW 6 7 3 4 1019.5 1019.6 0.0
04/05:00pm 14.2 14.4 11.7 85 1.4 WNW 2 4 1 2 1019.4 1019.5 0.0
04/04:30pm 15.2 14.8 12.3 83 1.6 WSW 6 7 3 4 1019.2 1019.3 0.0
04/04:00pm 17.5 15.4 11.3 67 3.4 WNW 13 19 7 10 1019.3 1019.4 0.0
04/03:30pm 17.6 16.3 12.5 72 2.9 WNW 11 15 6 8 1019.5 1019.6 0.0
04/03:00pm 17.3 15.1 12.0 71 2.9 W 15 20 8 11 1019.5 1019.6 0.0
04/02:30pm 18.1 15.5 11.9 67 3.4 WNW 17 24 9 13 1019.5 1019.6 0.0
04/02:00pm 17.4 15.9 14.1 81 1.9 WSW 15 22 8 12 1019.5 1019.6 0.0
04/01:30pm 16.9 16.4 13.8 82 1.8 WSW 9 15 5 8 1019.9 1019.9 0.0
04/01:00pm 16.8 16.6 13.5 81 1.9 W 7 9 4 5 1020.2 1020.3 0.0
04/12:30pm 16.4 15.4 13.3 82 1.8 W 11 15 6 8 1020.6 1020.7 0.0
04/12:00pm 16.3 15.2 13.0 81 1.8 W 11 17 6 9 1021.1 1021.2 0.0
04/11:30am 16.3 16.2 13.4 83 1.6 NW 6 9 3 5 1021.4 1021.5 0.0
04/11:00am 15.1 15.2 14.0 93 0.6 NW 6 9 3 5 1021.9 1022.0 0.0
04/10:30am 14.4 14.6 14.2 99 0.1 NW 6 9 3 5 1022.2 1022.3 0.0
04/10:00am 13.7 13.5 13.7 100 0.0 NW 7 11 4 6 1022.4 1022.5 0.0
04/09:30am 12.9 12.5 12.9 100 0.0 NW 7 13 4 7 1022.4 1022.5 0.0
04/09:00am 12.4 11.8 12.4 100 0.0 NW 7 11 4 6 1022.2 1022.3 0.0
04/08:30am 12.0 11.3 12.0 100 0.0 NW 7 11 4 6 1022.2 1022.3 0.0
04/08:00am 11.6 10.4 11.6 100 0.0 NW 9 11 5 6 1022.0 1022.1 0.0
04/07:30am 11.3 9.6 11.3 100 0.0 NW 11 15 6 8 1022.0 1022.1 0.0
04/07:00am 11.3 10.0 11.3 100 0.0 NW 9 13 5 7 1021.7 1021.8 0.0
04/06:30am 11.0 10.0 11.0 100 0.0 NNW 7 9 4 5 1021.8 1021.9 0.0
04/06:00am 10.8 9.7 10.8 100 0.0 NNW 7 9 4 5 1021.6 1021.7 0.0
04/05:30am 10.8 9.4 10.8 100 0.0 NW 9 13 5 7 1021.4 1021.5 0.0
04/05:00am 10.5 9.4 10.5 100 0.0 NW 7 9 4 5 1021.2 1021.3 0.0
04/04:30am 9.6 8.2 9.5 99 0.1 NNW 7 7 4 4 1021.2 1021.3 0.0
04/04:00am 9.7 8.3 9.6 99 0.1 NNW 7 9 4 5 1021.3 1021.4 0.0
04/03:30am 9.6 8.1 9.3 98 0.2 NNW 7 9 4 5 1021.3 1021.4 0.0
04/03:00am 10.4 8.8 10.1 98 0.2 NW 9 9 5 5 1021.5 1021.6 0.0
04/02:30am 11.0 9.5 10.5 97 0.3 NW 9 9 5 5 1021.6 1021.7 0.0
04/02:00am 11.4 9.6 10.9 97 0.3 NW 11 13 6 7 1021.8 1021.9 0.0
04/01:30am 11.9 10.6 11.3 96 0.3 WNW 9 11 5 6 1021.8 1021.9 0.0
04/01:00am 12.4 11.2 11.6 95 0.4 NW 9 9 5 5 1021.8 1021.9 0.0
04/12:30am 13.0 12.0 12.4 96 0.3 NW 9 11 5 6 1021.9 1022.0 0.0
04/12:00am 12.3 11.1 11.7 96 0.3 NNW 9 11 5 6 1021.9 1022.0 0.0

Other Formats:

Comma delimited format used in spreadsheet applications
http://www.bom.gov.au/fwo/IDW60801/IDW60801.95644.axf

JavaScript Object Notation format (JSON) in row-major order
http://www.bom.gov.au/fwo/IDW60801/IDW60801.95644.json